Time;durP1;ratioP1;P1;durP2;ratioP2;P2;SDS_P1;SDS_P2;PMS_P1;PMS_P2;Temp;Humidity;BMP_temperature;BMP_pressure;BME280_temperature;BME280_humidity;BME280_pressure;Samples;Min_cycle;Max_cycle;Signal;HPM_P1;HPM_P2
2023/07/05 00:00:17;;;;;;;9.67;5.20;;;;;;;14.78;100.00;100355.34;4907153;29;20071;-88
2023/07/05 00:02:42;;;;;;;8.75;4.63;;;;;;;14.77;100.00;100350.28;4898949;29;20104;-89
2023/07/05 00:05:08;;;;;;;8.57;4.80;;;;;;;14.62;100.00;100324.34;4897709;29;20037;-88
2023/07/05 00:07:33;;;;;;;8.67;4.90;;;;;;;14.73;100.00;100327.69;4899501;29;20135;-89
2023/07/05 00:09:59;;;;;;;10.27;4.88;;;;;;;14.73;100.00;100319.59;4897224;29;20033;-88
2023/07/05 00:12:24;;;;;;;7.53;4.60;;;;;;;14.58;100.00;100285.59;4895741;29;20388;-88
2023/07/05 00:14:50;;;;;;;8.73;4.90;;;;;;;14.63;100.00;100294.38;4896662;29;20024;-88
2023/07/05 00:17:15;;;;;;;11.57;5.20;;;;;;;14.58;100.00;100297.19;4893954;29;20376;-88
2023/07/05 00:19:41;;;;;;;6.40;4.63;;;;;;;14.57;100.00;100290.19;4895982;29;20553;-88
2023/07/05 00:22:07;;;;;;;8.77;5.10;;;;;;;14.63;100.00;100272.81;4895551;29;20632;-89
2023/07/05 00:24:32;;;;;;;7.38;4.65;;;;;;;14.63;100.00;100259.31;4896342;29;20033;-88
2023/07/05 00:26:58;;;;;;;5.10;3.90;;;;;;;14.52;100.00;100233.66;4895563;29;20028;-88
2023/07/05 00:29:23;;;;;;;6.87;3.83;;;;;;;14.60;100.00;100245.66;4896395;29;20024;-88
2023/07/05 00:31:48;;;;;;;5.93;3.90;;;;;;;14.61;100.00;100242.63;4895284;29;20028;-88
2023/07/05 00:34:14;;;;;;;7.53;4.33;;;;;;;14.58;100.00;100237.06;4894710;29;20080;-88
2023/07/05 00:36:39;;;;;;;9.77;3.87;;;;;;;14.60;100.00;100229.47;4878956;29;20506;-88
2023/07/05 00:39:04;;;;;;;6.93;4.10;;;;;;;14.55;100.00;100211.50;4882708;29;20047;-88
2023/07/05 00:41:30;;;;;;;8.97;4.10;;;;;;;14.57;100.00;100206.63;4895224;29;20032;-88
2023/07/05 00:43:55;;;;;;;5.63;3.80;;;;;;;14.54;100.00;100180.25;4896437;29;20040;-88
2023/07/05 00:46:30;;;;;;;8.83;4.63;;;;;;;14.44;100.00;100165.06;4894758;29;20556;-88
2023/07/05 00:49:24;;;;;;;7.75;4.47;;;;;;;14.43;100.00;100192.31;4895881;29;20033;-89
2023/07/05 00:51:57;;;;;;;4.70;3.80;;;;;;;14.47;100.00;100202.22;4890634;29;20124;-89
2023/07/05 00:54:31;;;;;;;7.03;3.85;;;;;;;14.45;100.00;100195.50;4896073;29;20040;-89
2023/07/05 00:57:03;;;;;;;17.38;4.28;;;;;;;14.54;100.00;100205.28;4891198;29;20041;-88
2023/07/05 00:59:34;;;;;;;5.18;3.55;;;;;;;14.54;100.00;100210.69;4894668;29;20036;-88
2023/07/05 01:02:00;;;;;;;9.30;4.10;;;;;;;14.52;100.00;100195.94;4895520;29;20032;-89
2023/07/05 01:04:25;;;;;;;6.40;3.37;;;;;;;14.48;100.00;100184.13;4895595;29;20414;-88
2023/07/05 01:06:50;;;;;;;6.30;3.80;;;;;;;14.51;100.00;100187.06;4894868;29;20108;-88
2023/07/05 01:09:16;;;;;;;8.07;4.38;;;;;;;14.52;100.00;100190.53;4865015;29;20044;-89
2023/07/05 01:12:05;;;;;;;7.43;3.53;;;;;;;14.54;100.00;100180.25;4885807;29;20040;-89
2023/07/05 01:14:41;;;;;;;5.97;3.70;;;;;;;14.49;100.00;100164.16;4887391;29;20045;-89
2023/07/05 01:17:32;;;;;;;8.02;4.00;;;;;;;14.56;100.00;100174.56;4887472;29;20097;-88
2023/07/05 01:20:24;;;;;;;6.53;4.00;;;;;;;14.58;100.00;100172.34;4882617;29;20040;-88
2023/07/05 01:23:19;;;;;;;7.17;3.67;;;;;;;14.59;100.00;100173.94;4881202;29;20282;-89
2023/07/05 01:26:16;;;;;;;7.32;3.78;;;;;;;14.60;100.00;100168.28;4886596;29;20033;-88
2023/07/05 01:29:07;;;;;;;7.78;4.35;;;;;;;14.60;100.00;100165.59;4881815;29;20037;-89
2023/07/05 01:31:42;;;;;;;7.00;3.65;;;;;;;14.62;100.00;100163.34;4878012;29;20039;-88
2023/07/05 01:34:19;;;;;;;4.90;3.88;;;;;;;14.61;100.00;100158.28;4860527;29;20029;-88
2023/07/05 01:36:44;;;;;;;5.15;3.38;;;;;;;14.64;100.00;100171.94;4876137;29;20645;-89
2023/07/05 01:39:10;;;;;;;6.32;3.53;;;;;;;14.57;100.00;100155.41;4882344;29;20039;-89
2023/07/05 01:41:35;;;;;;;4.00;3.37;;;;;;;14.63;100.00;100183.03;4895192;29;20049;-89
2023/07/05 01:44:01;;;;;;;3.83;3.00;;;;;;;14.46;100.00;100156.69;4895223;29;20076;-88
2023/07/05 01:46:32;;;;;;;10.52;3.08;;;;;;;14.49;100.00;100166.88;4886066;29;20039;-89
2023/07/05 01:49:13;;;;;;;5.18;3.28;;;;;;;14.52;100.00;100166.28;4876434;29;20089;-89
2023/07/05 01:52:05;;;;;;;6.40;3.40;;;;;;;14.58;100.00;100169.66;4878522;29;20040;-89
2023/07/05 01:54:52;;;;;;;5.80;3.10;;;;;;;14.65;100.00;100178.16;4885885;29;20297;-90
2023/07/05 01:57:23;;;;;;;3.50;2.90;;;;;;;14.57;100.00;100186.94;4890501;29;20033;-89
2023/07/05 01:59:55;;;;;;;5.90;3.00;;;;;;;14.52;100.00;100196.72;4876321;29;20033;-89
2023/07/05 02:02:26;;;;;;;4.15;2.67;;;;;;;14.36;100.00;100181.94;4876890;29;20366;-89
2023/07/05 02:04:52;;;;;;;4.00;2.90;;;;;;;14.44;100.00;100205.50;4888143;29;20036;-89
2023/07/05 02:07:24;;;;;;;4.45;2.80;;;;;;;14.33;100.00;100204.91;4894999;29;20081;-89
2023/07/05 02:09:49;;;;;;;3.67;2.50;;;;;;;14.26;100.00;100203.69;4891547;29;20107;-89
2023/07/05 02:12:15;;;;;;;5.43;2.57;;;;;;;14.19;100.00;100215.66;4895049;29;20575;-89
2023/07/05 02:14:40;;;;;;;3.40;2.20;;;;;;;14.17;100.00;100235.91;4893858;29;20036;-89
2023/07/05 02:17:05;;;;;;;2.40;2.00;;;;;;;14.03;100.00;100238.56;4893746;29;20036;-89
2023/07/05 02:19:31;;;;;;;3.92;2.33;;;;;;;13.82;100.00;100230.03;4891837;29;20029;-89
2023/07/05 02:21:56;;;;;;;3.57;1.93;;;;;;;13.64;100.00;100243.22;4895171;29;20045;-89
2023/07/05 02:24:21;;;;;;;3.93;1.90;;;;;;;13.57;100.00;100265.13;4894904;29;20025;-90
2023/07/05 02:26:47;;;;;;;7.03;1.73;;;;;;;13.43;100.00;100264.25;4877176;29;20048;-90
2023/07/05 02:29:12;;;;;;;2.38;1.58;;;;;;;13.37;100.00;100260.00;4897282;29;20036;-90
2023/07/05 02:31:37;;;;;;;3.13;2.03;;;;;;;13.40;100.00;100278.28;4896953;29;20036;-90
2023/07/05 02:34:02;;;;;;;4.63;1.90;;;;;;;13.24;100.00;100283.03;4898065;29;20029;-89
2023/07/05 02:36:28;;;;;;;2.77;2.13;;;;;;;13.25;100.00;100284.66;4894596;29;20108;-90
2023/07/05 02:38:54;;;;;;;3.73;1.93;;;;;;;13.13;100.00;100272.44;4898110;29;20663;-89
2023/07/05 02:41:20;;;;;;;2.53;1.90;;;;;;;13.02;100.00;100295.97;4907326;29;20031;-90
2023/07/05 02:43:45;;;;;;;5.53;2.27;;;;;;;12.82;100.00;100290.81;4902831;29;20393;-89
2023/07/05 02:46:10;;;;;;;4.93;2.33;;;;;;;12.76;100.00;100305.38;4897950;29;20360;-89
2023/07/05 02:48:36;;;;;;;3.33;2.17;;;;;;;12.66;100.00;100292.84;4887897;29;20032;-89
2023/07/05 02:51:01;;;;;;;5.97;2.30;;;;;;;12.55;100.00;100292.97;4864148;29;20041;-89
2023/07/05 02:53:26;;;;;;;3.77;2.40;;;;;;;12.38;100.00;100289.91;4886825;29;20123;-89
2023/07/05 02:55:52;;;;;;;6.13;2.88;;;;;;;12.35;100.00;100283.19;4897523;29;20041;-91
2023/07/05 02:58:17;;;;;;;4.90;2.50;;;;;;;12.36;100.00;100257.13;4896562;29;20396;-91
2023/07/05 03:00:44;;;;;;;6.07;2.60;;;;;;;12.41;100.00;100283.97;4885760;29;20412;-91
2023/07/05 03:03:09;;;;;;;5.13;2.40;;;;;;;12.40;100.00;100282.38;4878962;29;20489;-93
2023/07/05 03:05:35;;;;;;;6.15;2.42;;;;;;;12.25;100.00;100265.28;4879448;29;20060;-90
2023/07/05 03:08:00;;;;;;;4.53;2.27;;;;;;;12.30;100.00;100287.81;4897250;29;20490;-91
2023/07/05 03:10:25;;;;;;;3.67;2.47;;;;;;;12.19;100.00;100289.78;4896317;29;20365;-90
2023/07/05 03:12:51;;;;;;;5.47;2.50;;;;;;;12.13;100.00;100304.34;4894016;29;20067;-93
2023/07/05 03:15:16;;;;;;;5.35;2.78;;;;;;;12.05;100.00;100282.38;4887813;29;20036;-92
2023/07/05 03:17:43;;;;;;;3.53;2.83;;;;;;;11.97;100.00;100286.44;4895654;29;20454;-91
2023/07/05 03:20:08;;;;;;;5.65;3.05;;;;;;;11.89;100.00;100275.50;4897863;29;20047;-91
2023/07/05 03:22:34;;;;;;;5.27;2.87;;;;;;;11.91;100.00;100300.97;4897379;29;20032;-92
2023/07/05 03:24:59;;;;;;;5.37;3.03;;;;;;;11.84;100.00;100287.09;4897763;29;20115;-91
2023/07/05 03:27:28;;;;;;;7.53;3.20;;;;;;;11.93;100.00;100285.38;4882327;29;20036;-92
2023/07/05 03:29:55;;;;;;;4.53;3.23;;;;;;;12.02;100.00;100290.22;4881149;29;20649;-93
2023/07/05 03:32:21;;;;;;;9.63;3.13;;;;;;;11.99;100.00;100277.34;4897035;29;20029;-92
2023/07/05 03:34:46;;;;;;;5.30;3.30;;;;;;;12.15;100.00;100292.25;4888920;29;20040;-93
2023/07/05 03:37:11;;;;;;;5.53;3.10;;;;;;;12.16;100.00;100284.97;4878517;29;20025;-92
2023/07/05 03:39:37;;;;;;;5.35;3.45;;;;;;;12.06;100.00;100275.13;4896480;29;20036;-92
2023/07/05 03:42:02;;;;;;;3.87;2.70;;;;;;;12.14;100.00;100290.63;4897248;29;20043;-92
2023/07/05 03:44:28;;;;;;;3.73;2.90;;;;;;;12.21;100.00;100301.06;4894368;29;20050;-96
2023/07/05 03:46:53;;;;;;;8.30;3.20;;;;;;;12.04;100.00;100271.94;5071667;23;20058;-96
2023/07/05 03:49:19;;;;;;;5.22;3.05;;;;;;;11.93;100.00;100247.81;4935273;29;20020;-96
2023/07/05 03:51:49;;;;;;;4.73;3.07;;;;;;;11.96;100.00;100249.13;5035369;23;20052;-95
2023/07/05 03:54:15;;;;;;;9.63;3.63;;;;;;;12.00;100.00;100246.72;4936373;29;20043;-96
2023/07/05 03:56:40;;;;;;;8.30;3.30;;;;;;;12.48;100.00;100297.84;4937053;29;20024;-96
2023/07/05 03:59:06;;;;;;;6.97;3.47;;;;;;;12.33;100.00;100269.22;4936823;29;20034;-94
2023/07/05 04:01:32;;;;;;;5.13;3.30;;;;;;;12.60;100.00;100291.31;4924069;23;20101;-84
2023/07/05 04:04:00;;;;;;;5.07;3.08;;;;;;;12.70;100.00;100299.25;4879798;29;20032;-85
2023/07/05 04:06:28;;;;;;;4.80;3.22;;;;;;;12.69;100.00;100279.63;4883203;29;20048;-85
2023/07/05 04:08:53;;;;;;;6.45;3.78;;;;;;;12.70;100.00;100278.53;4882988;29;20449;-84
2023/07/05 04:11:19;;;;;;;4.43;3.17;;;;;;;12.87;100.00;100291.53;4875517;29;20120;-85
2023/07/05 04:13:46;;;;;;;6.72;3.22;;;;;;;12.90;100.00;100300.13;4876404;29;20025;-85
2023/07/05 04:16:17;;;;;;;6.27;3.07;;;;;;;12.96;100.00;100299.00;4876528;29;20025;-85
2023/07/05 04:18:44;;;;;;;8.30;3.30;;;;;;;12.93;100.00;100281.53;4877853;29;20297;-84
2023/07/05 04:21:10;;;;;;;7.38;2.95;;;;;;;13.06;100.00;100308.81;4874419;29;20041;-85
2023/07/05 04:23:36;;;;;;;5.60;3.00;;;;;;;13.09;100.00;100303.66;4885743;29;20382;-85
2023/07/05 04:26:04;;;;;;;5.78;3.08;;;;;;;13.03;100.00;100280.59;4874402;29;20180;-85
2023/07/05 04:28:30;;;;;;;6.53;2.90;;;;;;;13.14;100.00;100289.34;4877749;29;20096;-86
2023/07/05 04:30:57;;;;;;;4.97;3.40;;;;;;;13.41;100.00;100299.53;4877297;29;20029;-87
2023/07/05 04:33:22;;;;;;;4.93;3.05;;;;;;;13.55;100.00;100309.56;4877044;29;20063;-86
2023/07/05 04:35:49;;;;;;;5.80;3.30;;;;;;;13.57;100.00;100308.22;4877478;29;20037;-89
2023/07/05 04:38:15;;;;;;;6.43;3.10;;;;;;;13.60;100.00;100304.13;4876475;29;20495;-85
2023/07/05 04:40:41;;;;;;;6.80;3.08;;;;;;;13.60;100.00;100309.50;4883504;29;20152;-85
2023/07/05 04:43:06;;;;;;;5.30;2.83;;;;;;;13.53;100.00;100292.91;4872687;29;20041;-87
2023/07/05 04:45:31;;;;;;;7.45;3.40;;;;;;;13.54;100.00;100307.97;4875232;29;20394;-85
2023/07/05 04:47:57;;;;;;;8.33;3.23;;;;;;;13.65;100.00;100317.53;4874921;29;20508;-86
2023/07/05 04:50:22;;;;;;;7.07;3.00;;;;;;;13.67;100.00;100304.56;4873672;29;20482;-85
2023/07/05 04:52:47;;;;;;;6.03;2.90;;;;;;;13.65;100.00;100312.13;4882179;29;20425;-85
2023/07/05 04:55:13;;;;;;;7.27;3.10;;;;;;;13.66;100.00;100299.47;4872889;29;20807;-85
2023/07/05 04:57:38;;;;;;;6.47;3.17;;;;;;;13.71;100.00;100310.94;4873789;29;20084;-85
2023/07/05 05:00:04;;;;;;;4.43;3.13;;;;;;;13.75;100.00;100313.88;4874412;29;20228;-86
2023/07/05 05:02:29;;;;;;;5.68;3.10;;;;;;;13.80;100.00;100300.31;4876324;29;20033;-85
2023/07/05 05:04:54;;;;;;;9.27;3.27;;;;;;;13.95;100.00;100310.06;4875459;29;20037;-85
2023/07/05 05:07:20;;;;;;;6.23;3.43;;;;;;;13.99;100.00;100294.94;4868264;29;20171;-85
2023/07/05 05:09:45;;;;;;;6.87;3.47;;;;;;;14.14;100.00;100320.84;4874221;29;20039;-85
2023/07/05 05:12:11;;;;;;;10.93;3.65;;;;;;;14.07;100.00;100309.63;4887534;29;20123;-85
2023/07/05 05:14:36;;;;;;;7.13;3.00;;;;;;;14.32;100.00;100331.88;4874967;29;20067;-85
2023/07/05 05:17:01;;;;;;;5.00;2.73;;;;;;;14.28;100.00;100315.47;4875609;29;20032;-84
2023/07/05 05:19:26;;;;;;;5.30;3.47;;;;;;;14.28;100.00;100336.25;4870297;29;20033;-84
2023/07/05 05:21:52;;;;;;;8.70;2.77;;;;;;;14.13;100.00;100313.03;4874338;29;20037;-84
2023/07/05 05:24:17;;;;;;;8.90;2.80;;;;;;;14.12;100.00;100331.09;4878507;29;20053;-84
2023/07/05 05:26:42;;;;;;;4.07;2.90;;;;;;;14.01;100.00;100317.00;4867581;29;20033;-84
2023/07/05 05:29:08;;;;;;;4.03;2.63;;;;;;;13.94;100.00;100319.25;4874521;29;20025;-84
2023/07/05 05:31:34;;;;;;;4.90;2.63;;;;;;;13.90;100.00;100312.84;4885708;29;20166;-83
2023/07/05 05:33:59;;;;;;;6.17;2.83;;;;;;;13.94;100.00;100319.25;4886749;29;20055;-85
2023/07/05 05:36:25;;;;;;;6.70;3.10;;;;;;;13.90;100.00;100320.91;4875313;29;20041;-85
2023/07/05 05:38:50;;;;;;;5.43;2.93;;;;;;;13.89;100.00;100324.69;4875954;29;20056;-84
2023/07/05 05:41:15;;;;;;;10.33;2.97;;;;;;;13.77;100.00;100299.03;4874777;29;20068;-85
2023/07/05 05:43:43;;;;;;;6.80;3.03;;;;;;;13.85;100.00;100326.41;4872733;29;20139;-85
2023/07/05 05:46:09;;;;;;;6.53;2.97;;;;;;;13.90;100.00;100326.31;4876588;29;20124;-86
2023/07/05 05:48:35;;;;;;;10.90;2.93;;;;;;;13.91;100.00;100334.09;4866803;29;20301;-86
2023/07/05 05:51:00;;;;;;;6.63;2.78;;;;;;;13.88;100.00;100312.31;4875995;29;20096;-84
2023/07/05 05:53:26;;;;;;;9.87;3.20;;;;;;;13.99;100.00;100327.25;4876226;29;20047;-85
2023/07/05 05:55:51;;;;;;;7.80;2.70;;;;;;;14.04;100.00;100329.06;4875600;29;20032;-87
2023/07/05 05:58:16;;;;;;;11.90;2.80;;;;;;;13.94;100.00;100319.25;4875531;29;20051;-85
2023/07/05 06:00:41;;;;;;;7.13;2.80;;;;;;;14.08;100.00;100338.94;4876148;29;20037;-85
2023/07/05 06:03:07;;;;;;;8.37;2.90;;;;;;;14.08;100.00;100319.31;4878881;29;20417;-86
2023/07/05 06:05:33;;;;;;;5.23;2.73;;;;;;;14.29;100.00;100341.31;4878349;29;20830;-88
2023/07/05 06:07:59;;;;;;;5.40;2.50;;;;;;;14.36;100.00;100344.44;4879285;29;20142;-87
2023/07/05 06:10:24;;;;;;;9.30;2.87;;;;;;;14.15;100.00;100348.56;4880017;29;20029;-88
2023/07/05 06:12:49;;;;;;;5.53;2.17;;;;;;;14.05;100.00;100363.81;4879181;29;20037;-87
2023/07/05 06:15:15;;;;;;;4.10;2.20;;;;;;;14.12;100.00;100366.13;4878764;29;20033;-88
2023/07/05 06:17:41;;;;;;;6.33;2.90;;;;;;;14.30;100.00;100364.50;4877905;29;20032;-87
2023/07/05 06:20:10;;;;;;;5.28;2.70;;;;;;;14.40;100.00;100366.22;4880478;29;20052;-88
2023/07/05 06:22:36;;;;;;;4.63;2.72;;;;;;;14.33;100.00;100381.97;4860518;29;20398;-88
2023/07/05 06:25:02;;;;;;;4.88;2.45;;;;;;;14.18;100.00;100388.41;4879496;29;20033;-86
2023/07/05 06:27:28;;;;;;;3.33;2.13;;;;;;;13.98;100.00;100386.78;4878592;29;20029;-87
2023/07/05 06:29:53;;;;;;;5.63;2.27;;;;;;;14.07;100.00;100379.66;4876958;29;20677;-87
2023/07/05 06:32:18;;;;;;;5.37;2.27;;;;;;;14.46;100.00;100386.63;4877767;29;20029;-86
2023/07/05 06:34:44;;;;;;;4.70;2.40;;;;;;;14.95;100.00;100389.84;4878224;29;20040;-87
2023/07/05 06:37:09;;;;;;;3.23;2.37;;;;;;;14.98;100.00;100397.31;4879170;29;20111;-87
2023/07/05 06:39:36;;;;;;;4.53;2.10;;;;;;;15.23;100.00;100395.25;4879325;29;20346;-87
2023/07/05 06:42:01;;;;;;;4.60;2.30;;;;;;;15.65;100.00;100411.44;4879478;29;20032;-87
2023/07/05 06:44:27;;;;;;;3.45;1.80;;;;;;;15.90;98.00;100396.59;4876189;29;20030;-86
2023/07/05 06:46:52;;;;;;;4.60;2.20;;;;;;;15.82;96.84;100400.00;4885892;29;20067;-87
2023/07/05 06:49:17;;;;;;;5.23;2.50;;;;;;;15.69;97.16;100407.03;4880518;29;20033;-87
2023/07/05 06:51:43;;;;;;;11.23;2.28;;;;;;;15.56;96.56;100422.16;4883947;29;20069;-88
2023/07/05 06:54:08;;;;;;;5.87;2.90;;;;;;;15.60;95.34;100411.56;4888540;29;20029;-88
2023/07/05 06:56:37;;;;;;;4.77;1.90;;;;;;;15.67;96.32;100438.16;4877426;29;20081;-87
2023/07/05 06:59:02;;;;;;;5.50;2.40;;;;;;;15.34;94.47;100419.38;4888874;29;20060;-87
2023/07/05 07:01:27;;;;;;;5.47;2.10;;;;;;;15.44;96.37;100435.34;4890803;29;20065;-87
2023/07/05 07:03:53;;;;;;;6.87;2.03;;;;;;;15.67;93.10;100432.75;4876885;29;20038;-88
2023/07/05 07:06:18;;;;;;;4.97;2.00;;;;;;;15.87;91.62;100418.84;4854404;29;20033;-87
2023/07/05 07:08:44;;;;;;;6.20;2.03;;;;;;;16.16;91.26;100443.88;4858200;29;20032;-88
2023/07/05 07:11:11;;;;;;;4.67;2.27;;;;;;;16.50;88.71;100453.41;4873411;29;20034;-88
2023/07/05 07:13:37;;;;;;;3.83;1.90;;;;;;;16.41;87.40;100455.22;4883488;29;20040;-87
2023/07/05 07:16:08;;;;;;;8.23;2.30;;;;;;;16.27;88.95;100455.25;4879784;29;20029;-88
2023/07/05 07:18:36;;;;;;;3.95;2.10;;;;;;;16.32;86.27;100457.84;4867262;29;20136;-89
2023/07/05 07:21:02;;;;;;;3.53;1.83;;;;;;;16.49;86.55;100433.66;4876473;29;20115;-87
2023/07/05 07:23:28;;;;;;;5.70;1.80;;;;;;;16.30;85.55;100465.47;4877220;29;20076;-87
2023/07/05 07:26:01;;;;;;;3.10;1.45;;;;;;;16.34;89.86;100467.25;4873777;29;20059;-87
2023/07/05 07:28:27;;;;;;;6.03;1.90;;;;;;;16.32;93.56;100493.00;4877448;29;20036;-86
2023/07/05 07:30:53;;;;;;;5.93;2.00;;;;;;;16.02;98.64;100487.16;4876191;29;20029;-87
2023/07/05 07:33:18;;;;;;;4.93;2.03;;;;;;;15.92;100.00;100512.50;4860458;29;20037;-86
2023/07/05 07:35:44;;;;;;;3.47;1.60;;;;;;;15.25;100.00;100498.31;4874439;29;20033;-86
2023/07/05 07:38:09;;;;;;;4.93;2.40;;;;;;;14.36;100.00;100499.97;4855058;29;20232;-84
2023/07/05 07:40:37;;;;;;;3.30;2.20;;;;;;;13.78;100.00;100510.66;4873432;29;20092;-84
2023/07/05 07:43:07;;;;;;;6.20;2.10;;;;;;;13.46;100.00;100528.25;4861200;29;20142;-84
2023/07/05 07:45:32;;;;;;;5.07;2.05;;;;;;;13.16;100.00;100521.22;4878788;29;20029;-84
2023/07/05 07:47:58;;;;;;;5.10;2.60;;;;;;;13.05;100.00;100533.94;4877180;29;20077;-84
2023/07/05 07:50:24;;;;;;;3.87;2.50;;;;;;;12.89;100.00;100530.56;4875719;29;20040;-85
2023/07/05 07:52:50;;;;;;;5.40;2.60;;;;;;;12.70;100.00;100519.69;4877004;29;20029;-85
2023/07/05 07:55:16;;;;;;;8.65;2.80;;;;;;;12.69;100.00;100532.31;4876609;29;20410;-84
2023/07/05 07:57:41;;;;;;;7.87;2.80;;;;;;;12.66;100.00;100532.91;4876904;29;20036;-84
2023/07/05 08:00:09;;;;;;;6.47;2.60;;;;;;;12.90;100.00;100526.78;4877444;29;20128;-84
2023/07/05 08:02:37;;;;;;;5.28;2.60;;;;;;;13.14;100.00;100532.28;4877222;29;20064;-84
2023/07/05 08:05:03;;;;;;;4.53;2.45;;;;;;;13.27;100.00;100546.16;4876887;29;20449;-84
2023/07/05 08:07:31;;;;;;;5.82;2.60;;;;;;;13.26;100.00;100523.00;4878776;29;20219;-83
2023/07/05 08:09:56;;;;;;;4.97;2.58;;;;;;;13.21;100.00;100540.00;4878234;29;20037;-84
2023/07/05 08:12:22;;;;;;;5.20;2.33;;;;;;;13.12;100.00;100558.66;4877797;29;20025;-86
2023/07/05 08:14:47;;;;;;;4.88;2.60;;;;;;;13.10;100.00;100551.94;4861047;29;20367;-85
2023/07/05 08:17:12;;;;;;;5.90;2.80;;;;;;;12.96;100.00;100541.03;4877169;29;20049;-85
2023/07/05 08:19:38;;;;;;;6.17;2.40;;;;;;;13.01;100.00;100554.41;4876473;29;20029;-87
2023/07/05 08:22:04;;;;;;;8.43;3.33;;;;;;;13.15;100.00;100560.75;4876431;29;20382;-84
2023/07/05 08:24:29;;;;;;;6.80;2.80;;;;;;;13.46;100.00;100546.25;4875448;29;20017;-84
2023/07/05 08:26:56;;;;;;;5.43;3.20;;;;;;;13.78;100.00;100564.53;4859331;29;20051;-85
2023/07/05 08:29:22;;;;;;;6.53;2.83;;;;;;;14.23;100.00;100566.19;4875726;29;20115;-84
2023/07/05 08:31:47;;;;;;;6.22;2.83;;;;;;;14.73;100.00;100565.78;4876360;29;20116;-84
2023/07/05 08:34:13;;;;;;;5.65;2.75;;;;;;;15.03;100.00;100554.81;4876104;29;20405;-84
2023/07/05 08:36:41;;;;;;;4.00;2.50;;;;;;;15.47;100.00;100564.34;4875404;29;20588;-84
2023/07/05 08:39:07;;;;;;;4.20;2.90;;;;;;;16.14;100.00;100589.34;4868327;29;20034;-83
2023/07/05 08:41:41;;;;;;;5.70;2.85;;;;;;;16.45;100.00;100597.59;4871800;29;20030;-82
2023/07/05 08:44:22;;;;;;;9.43;3.05;;;;;;;16.85;100.00;100605.16;4862147;29;20398;-83
2023/07/05 08:46:58;;;;;;;6.13;2.50;;;;;;;17.42;99.48;100606.53;4873507;29;20060;-83
2023/07/05 08:49:30;;;;;;;4.07;2.30;;;;;;;17.48;92.58;100632.38;4876294;29;20300;-83
2023/07/05 08:51:56;;;;;;;8.05;2.70;;;;;;;17.54;95.22;100619.50;4872931;29;20085;-83
2023/07/05 08:54:32;;;;;;;5.90;2.05;;;;;;;17.66;93.58;100638.69;4875837;29;20048;-83
2023/07/05 08:57:13;;;;;;;7.40;2.30;;;;;;;17.73;93.33;100621.19;5098799;27;20375;-82
2023/07/05 08:59:53;;;;;;;6.57;2.40;;;;;;;17.86;93.42;100607.56;5086153;28;20036;-83
2023/07/05 09:02:19;;;;;;;8.52;2.58;;;;;;;17.79;90.51;100642.44;5082955;28;20021;-82
2023/07/05 09:04:47;;;;;;;6.03;2.50;;;;;;;17.91;87.98;100638.34;5064852;28;20403;-83
2023/07/05 09:07:31;;;;;;;5.40;2.30;;;;;;;18.28;88.05;100641.69;5064993;28;20271;-83
2023/07/05 09:10:37;;;;;;;7.28;2.40;;;;;;;18.52;84.59;100638.56;5081685;28;20111;-84
2023/07/05 09:13:24;;;;;;;9.73;2.58;;;;;;;18.81;84.65;100656.16;5085927;28;20028;-83
2023/07/05 09:16:11;;;;;;;3.83;2.28;;;;;;;18.96;87.27;100665.00;5083842;28;20028;-83
2023/07/05 09:18:58;;;;;;;8.30;2.70;;;;;;;18.95;82.97;100671.53;5079457;28;20131;-83
2023/07/05 09:21:32;;;;;;;5.60;2.13;;;;;;;19.07;84.45;100666.28;5066258;28;20543;-83
2023/07/05 09:24:11;;;;;;;7.13;2.33;;;;;;;18.80;76.40;100668.16;5079512;28;20036;-84
2023/07/05 09:26:41;;;;;;;6.57;2.00;;;;;;;18.77;77.06;100675.00;5084247;28;20032;-84
2023/07/05 09:29:41;;;;;;;6.32;2.47;;;;;;;18.96;80.13;100676.66;5077398;28;20040;-84
2023/07/05 09:32:32;;;;;;;9.70;2.17;;;;;;;19.03;76.02;100687.03;5064135;28;20055;-83
2023/07/05 09:34:59;;;;;;;7.67;2.37;;;;;;;18.94;73.45;100683.50;5070345;28;20294;-84
2023/07/05 09:37:31;;;;;;;7.82;2.47;;;;;;;18.96;75.47;100690.22;5088175;28;20107;-84
2023/07/05 09:40:09;;;;;;;4.60;2.22;;;;;;;19.00;72.68;100699.34;5073179;28;20036;-84
2023/07/05 09:42:41;;;;;;;6.10;2.13;;;;;;;19.17;74.60;100708.59;5082422;28;20111;-84
2023/07/05 09:45:14;;;;;;;5.75;1.88;;;;;;;19.54;72.08;100690.06;5082280;28;20040;-84
2023/07/05 09:47:41;;;;;;;6.65;1.90;;;;;;;20.07;67.82;100708.97;5071562;28;20025;-84
2023/07/05 09:50:16;;;;;;;3.55;1.70;;;;;;;20.41;64.82;100716.22;5073476;28;20123;-85
2023/07/05 09:52:43;;;;;;;7.38;1.55;;;;;;;20.54;62.93;100714.38;5085003;28;20509;-85
2023/07/05 09:55:13;;;;;;;6.63;1.83;;;;;;;20.43;58.65;100705.00;5083623;28;20601;-85
2023/07/05 09:57:38;;;;;;;7.43;1.70;;;;;;;20.32;59.49;100722.81;5084479;28;20029;-85
2023/07/05 10:00:36;;;;;;;4.73;1.83;;;;;;;19.82;60.52;100722.28;5085018;28;20357;-85
2023/07/05 10:03:10;;;;;;;7.07;1.58;;;;;;;19.68;59.58;100734.16;5083251;28;20031;-85
2023/07/05 10:05:37;;;;;;;13.43;1.83;;;;;;;19.48;59.43;100724.75;5084113;28;20020;-84
2023/07/05 10:08:13;;;;;;;5.30;1.50;;;;;;;19.45;60.42;100738.97;5073245;28;20024;-84
2023/07/05 10:10:42;;;;;;;4.47;1.60;;;;;;;19.67;61.35;100756.22;5052055;28;20370;-84
2023/07/05 10:13:19;;;;;;;7.43;1.67;;;;;;;19.86;61.21;100747.72;5069613;28;20099;-84
2023/07/05 10:15:51;;;;;;;3.72;1.45;;;;;;;20.25;57.98;100766.84;5071172;28;20123;-85
2023/07/05 10:18:37;;;;;;;7.63;1.40;;;;;;;20.35;56.60;100763.75;5070284;28;20035;-85
2023/07/05 10:21:05;;;;;;;4.22;1.60;;;;;;;20.64;54.61;100783.97;5065340;28;20028;-85
2023/07/05 10:23:34;;;;;;;6.72;1.55;;;;;;;20.65;54.09;100777.41;5072926;28;20075;-85
2023/07/05 10:26:04;;;;;;;6.15;1.40;;;;;;;20.57;56.10;100784.47;5070304;28;20109;-85
2023/07/05 10:28:32;;;;;;;5.13;1.17;;;;;;;20.80;56.99;100788.91;5069234;28;20054;-84
2023/07/05 10:31:00;;;;;;;2.45;1.23;;;;;;;21.08;53.53;100788.41;5071383;28;20030;-84
2023/07/05 10:33:31;;;;;;;3.77;1.40;;;;;;;21.60;51.72;100779.06;5069683;28;20025;-85
2023/07/05 10:36:14;;;;;;;4.23;1.47;;;;;;;21.80;50.72;100803.94;5070995;28;20291;-85
2023/07/05 10:38:46;;;;;;;4.55;1.77;;;;;;;21.67;51.09;100786.72;5071123;28;20056;-85
2023/07/05 10:41:20;;;;;;;7.50;1.48;;;;;;;21.73;50.46;100804.44;5071084;28;20495;-84
2023/07/05 10:44:16;;;;;;;6.38;1.73;;;;;;;21.81;51.27;100806.31;5056984;28;20037;-85
2023/07/05 10:46:45;;;;;;;6.15;1.85;;;;;;;21.67;48.60;100798.41;5054615;28;20036;-84
2023/07/05 10:49:14;;;;;;;6.03;1.33;;;;;;;21.74;49.81;100827.88;5062997;28;20025;-85
2023/07/05 10:51:43;;;;;;;3.70;1.50;;;;;;;21.58;51.03;100824.94;5072466;28;20035;-85
2023/07/05 10:54:50;;;;;;;7.00;1.30;;;;;;;21.83;47.84;100823.16;5078306;28;20718;-84
2023/07/05 10:57:29;;;;;;;4.72;1.40;;;;;;;21.66;48.18;100831.47;5067225;28;20519;-85
2023/07/05 11:00:23;;;;;;;10.30;1.33;;;;;;;21.40;47.70;100833.25;5071476;28;20047;-85
2023/07/05 11:02:55;;;;;;;3.90;1.73;;;;;;;21.57;46.91;100840.47;5069519;28;20290;-86
2023/07/05 11:05:26;;;;;;;5.00;1.48;;;;;;;21.63;46.58;100822.03;5051046;28;20483;-84
2023/07/05 11:07:55;;;;;;;6.32;1.50;;;;;;;21.96;47.36;100834.91;5050604;28;20025;-85
2023/07/05 11:10:22;;;;;;;3.97;1.80;;;;;;;22.31;46.48;100833.75;5052138;28;20036;-85
2023/07/05 11:12:47;;;;;;;8.13;1.52;;;;;;;22.54;44.11;100851.34;5053731;28;20025;-85
2023/07/05 11:15:19;;;;;;;5.40;1.50;;;;;;;22.40;45.63;100853.56;5065557;28;20029;-85
2023/07/05 11:17:46;;;;;;;5.22;1.48;;;;;;;22.57;42.72;100846.34;5069296;28;20021;-85
2023/07/05 11:20:39;;;;;;;6.05;1.48;;;;;;;22.80;44.09;100843.97;5066303;28;20033;-85
2023/07/05 11:23:05;;;;;;;5.38;1.30;;;;;;;22.59;43.86;100846.81;5067846;28;20035;-84
2023/07/05 11:25:52;;;;;;;3.00;1.40;;;;;;;22.48;43.34;100862.81;5069500;28;20021;-85
2023/07/05 11:28:41;;;;;;;4.40;1.50;;;;;;;22.31;44.19;100869.22;5068944;28;20282;-84